createdAt,value
2018-11-20T00:02:01.947Z,102136.69
2018-11-20T00:05:04.352Z,102134.72
2018-11-20T00:07:45.541Z,102144.75
2018-11-20T00:10:31.563Z,102143.03
2018-11-20T00:13:21.717Z,102142.25
2018-11-20T00:16:11.775Z,102139.41
2018-11-20T00:19:11.333Z,102137.08
2018-11-20T00:21:57.481Z,102137.06
2018-11-20T00:24:45.055Z,102126.91
2018-11-20T00:27:44.684Z,102120.70
2018-11-20T00:30:38.537Z,102120.45
2018-11-20T00:33:31.583Z,102122.11
2018-11-20T00:36:10.962Z,102122.25
2018-11-20T00:38:58.423Z,102121.08
2018-11-20T00:41:45.867Z,102121.41
2018-11-20T00:44:31.981Z,102121.17
2018-11-20T00:47:19.379Z,102116.09
2018-11-20T00:50:06.793Z,102111.23
2018-11-20T00:52:54.205Z,102112.39
2018-11-20T00:56:33.992Z,102115.70
2018-11-20T00:59:10.149Z,102112.70
2018-11-20T01:01:53.197Z,102113.75
2018-11-20T01:04:51.493Z,102112.31
2018-11-20T01:07:30.891Z,102111.81
2018-11-20T01:10:08.437Z,102121.94
2018-11-20T01:12:52.298Z,102121.41
2018-11-20T01:15:38.413Z,102113.45
2018-11-20T01:18:28.155Z,102120.73
2018-11-20T01:21:24.216Z,102110.72
2018-11-20T01:24:17.246Z,102114.80
2018-11-20T01:26:59.224Z,102114.23
2018-11-20T01:29:52.763Z,102101.36
2018-11-20T01:32:40.139Z,102099.80
2018-11-20T01:35:25.923Z,102108.75
2018-11-20T01:38:15.911Z,102113.95
2018-11-20T01:41:01.963Z,102094.86
2018-11-20T01:43:48.145Z,102099.12
2018-11-20T01:46:34.057Z,102090.69
2018-11-20T01:49:24.118Z,102097.18
2018-11-20T01:52:29.960Z,102084.91
2018-11-20T01:55:23.405Z,102079.48
2018-11-20T01:58:13.664Z,102067.65
2018-11-20T02:00:59.710Z,102060.16
2018-11-20T02:03:43.730Z,102060.92
2018-11-20T02:06:43.106Z,102061.23
2018-11-20T02:09:39.286Z,102053.44
2018-11-20T02:12:26.674Z,102040.15
2018-11-20T02:15:12.669Z,102035.34
2018-11-20T02:18:04.085Z,102029.13
2018-11-20T02:20:53.271Z,102029.66
2018-11-20T02:23:34.623Z,102028.64
2018-11-20T02:26:37.037Z,102020.66
2018-11-20T02:29:30.666Z,102023.42
2018-11-20T02:32:23.879Z,102012.22
2018-11-20T02:35:10.150Z,102013.67
2018-11-20T02:37:57.561Z,102000.76
2018-11-20T02:40:43.617Z,101996.05
2018-11-20T02:43:36.825Z,101982.67
2018-11-20T02:46:27.336Z,101978.14
2018-11-20T02:49:14.719Z,101969.23
2018-11-20T02:51:53.101Z,101972.61
2018-11-20T02:54:39.362Z,101982.98
2018-11-20T02:57:41.714Z,101946.43
2018-11-20T03:00:27.744Z,101949.03
2018-11-20T03:03:13.903Z,101945.43
2018-11-20T03:06:10.359Z,101937.22
2018-11-20T03:09:00.788Z,101932.89
2018-11-20T03:11:57.340Z,101929.22
2018-11-20T03:14:44.791Z,101929.92
2018-11-20T03:17:29.993Z,101923.75
2018-11-20T03:20:07.443Z,101918.64
2018-11-20T03:23:13.138Z,101911.09
2018-11-20T03:26:00.661Z,101913.48
2018-11-20T03:28:50.057Z,101916.53
2018-11-20T03:31:36.786Z,101901.55
2018-11-20T03:34:36.075Z,101924.03
2018-11-20T03:37:29.222Z,101909.72
2018-11-20T03:40:25.656Z,101912.11
2018-11-20T03:43:11.750Z,101898.95
2018-11-20T03:45:47.953Z,101887.01
2018-11-20T03:48:33.902Z,101884.31
2018-11-20T03:51:33.531Z,101885.98
2018-11-20T03:54:19.707Z,101884.01
2018-11-20T03:57:19.079Z,101883.23
2018-11-20T04:00:09.323Z,101881.80
2018-11-20T04:02:52.471Z,101865.83
2018-11-20T04:05:51.769Z,101874.90
2018-11-20T04:08:39.186Z,101865.64
2018-11-20T04:11:25.406Z,101850.37
2018-11-20T04:14:11.454Z,101859.12
2018-11-20T04:16:57.632Z,101843.73
2018-11-20T04:19:56.797Z,101846.93
2018-11-20T04:23:03.540Z,101843.60
2018-11-20T04:25:43.383Z,101841.94
2018-11-20T04:28:32.573Z,101855.55
2018-11-20T04:31:43.010Z,101843.91
2018-11-20T04:34:33.327Z,101839.25
2018-11-20T04:37:27.833Z,101829.68
2018-11-20T04:40:15.415Z,101843.83
2018-11-20T04:43:06.558Z,101826.73
2018-11-20T04:45:59.391Z,101826.67
2018-11-20T04:48:49.446Z,101826.17
2018-11-20T04:51:36.837Z,101825.00
2018-11-20T04:54:24.533Z,101827.26
2018-11-20T04:57:20.674Z,101820.97
2018-11-20T05:00:07.627Z,101807.67
2018-11-20T05:02:57.876Z,101816.31
2018-11-20T05:05:51.083Z,101806.09
2018-11-20T05:08:44.047Z,101796.40
2018-11-20T05:11:30.130Z,101796.13
2018-11-20T05:14:35.931Z,101799.73
2018-11-20T05:17:21.894Z,101798.03
2018-11-20T05:20:08.044Z,101780.83
2018-11-20T05:23:04.300Z,101784.84
2018-11-20T05:25:50.086Z,101782.83
2018-11-20T05:28:37.493Z,101787.45
2018-11-20T05:31:27.790Z,101791.58
2018-11-20T05:34:13.584Z,101778.81
2018-11-20T05:36:59.697Z,101780.48
2018-11-20T05:39:45.693Z,101774.59
2018-11-20T05:42:21.891Z,101777.52
2018-11-20T05:45:07.650Z,101773.08
2018-11-20T05:47:58.024Z,101780.39
2018-11-20T05:50:57.207Z,101772.86
2018-11-20T05:53:56.688Z,101775.13
2018-11-20T05:56:38.116Z,101772.80
2018-11-20T05:59:34.197Z,101766.56
2018-11-20T06:02:21.629Z,101758.08
2018-11-20T06:05:11.845Z,101751.41
2018-11-20T06:07:50.722Z,101754.45
2018-11-20T06:10:36.697Z,101755.75
2018-11-20T06:13:39.175Z,101760.19
2018-11-20T06:16:25.432Z,101768.62
2018-11-20T06:19:24.707Z,101764.92
2018-11-20T06:22:03.360Z,101756.55
2018-11-20T06:24:50.790Z,101752.47
2018-11-20T06:27:53.259Z,101766.14
2018-11-20T06:30:37.497Z,101752.99
2018-11-20T06:33:32.037Z,101760.47
2018-11-20T06:36:13.143Z,101751.50
2018-11-20T06:38:59.921Z,101768.09
2018-11-20T06:41:46.099Z,101772.65
2018-11-20T06:44:51.358Z,101771.55
2018-11-20T06:47:37.250Z,101769.79
2018-11-20T06:50:29.127Z,101769.70
2018-11-20T06:53:25.279Z,101780.20
2018-11-20T06:56:10.878Z,101762.38
2018-11-20T06:59:16.224Z,101771.20
2018-11-20T07:02:02.567Z,101769.23
2018-11-20T07:04:47.382Z,101779.91
2018-11-20T07:07:53.024Z,101770.58
2018-11-20T07:10:40.387Z,101769.13
2018-11-20T07:13:35.385Z,101779.91
2018-11-20T07:16:56.558Z,101761.20
2018-11-20T07:19:45.218Z,101775.16
2018-11-20T07:22:31.773Z,101786.78
2018-11-20T07:25:27.851Z,101770.36
2018-11-20T07:28:13.434Z,101760.44
2018-11-20T07:31:06.839Z,101769.55
2018-11-20T07:34:00.023Z,101763.41
2018-11-20T07:36:56.372Z,101780.20
2018-11-20T07:39:44.559Z,101767.86
2018-11-20T07:42:41.041Z,101777.47
2018-11-20T07:45:27.333Z,101777.88
2018-11-20T07:48:14.721Z,101781.00
2018-11-20T07:51:01.005Z,101773.34
2018-11-20T07:53:54.343Z,101763.69
2018-11-20T07:56:44.618Z,101813.45
2018-11-20T07:59:38.241Z,101771.81
2018-11-20T08:02:24.426Z,101771.69
2018-11-20T08:05:10.088Z,101774.69
2018-11-20T08:08:00.613Z,101780.80
2018-11-20T08:10:54.122Z,101761.05
2018-11-20T08:13:38.486Z,101758.33
2018-11-20T08:16:25.931Z,101752.32
2018-11-20T08:19:02.998Z,101777.98
2018-11-20T08:21:48.919Z,101775.11
2018-11-20T08:24:35.135Z,101769.05
2018-11-20T08:27:28.171Z,101760.34
2018-11-20T08:30:13.952Z,101753.98
2018-11-20T08:33:13.318Z,101771.02
2018-11-20T08:36:00.869Z,101733.16
2018-11-20T08:38:46.757Z,101732.26
2018-11-20T08:41:32.850Z,101728.17
2018-11-20T08:44:20.532Z,101736.21
2018-11-20T08:47:10.506Z,101746.22
2018-11-20T08:50:03.650Z,101747.02
2018-11-20T08:52:55.828Z,101733.88
2018-11-20T08:55:55.386Z,101730.06
2018-11-20T08:58:48.827Z,101725.90
2018-11-20T09:01:45.340Z,101719.75
2018-11-20T09:04:32.783Z,101703.96
2018-11-20T09:07:26.009Z,101702.27
2018-11-20T09:10:16.394Z,101714.50
2018-11-20T09:13:02.709Z,101704.42
2018-11-20T09:16:00.093Z,101705.59
2018-11-20T09:18:45.364Z,101685.18
2018-11-20T09:21:31.226Z,101690.93
2018-11-20T09:24:27.669Z,101699.48
2018-11-20T09:27:27.184Z,101667.89
2018-11-20T09:30:10.997Z,101669.52
2018-11-20T09:32:58.910Z,101678.88
2018-11-20T09:35:49.250Z,101660.30
2018-11-20T09:38:35.830Z,101672.10
2018-11-20T09:41:23.515Z,101671.03
2018-11-20T09:44:34.796Z,101661.02
2018-11-20T09:47:15.319Z,101664.64
2018-11-20T09:49:56.760Z,101663.39
2018-11-20T09:52:47.175Z,101670.92
2018-11-20T09:55:34.387Z,101655.66
2018-11-20T09:58:32.808Z,101660.69
2018-11-20T10:01:18.888Z,101673.60
2018-11-20T10:03:59.718Z,101651.98
2018-11-20T10:06:46.381Z,101665.32
2018-11-20T10:09:33.743Z,101664.87
2018-11-20T10:12:20.153Z,101665.84
2018-11-20T10:15:07.632Z,101657.41
2018-11-20T10:17:53.975Z,101664.81
2018-11-20T10:20:53.739Z,101675.22
2018-11-20T10:23:44.993Z,101670.77
2018-11-20T10:26:33.856Z,101666.92
2018-11-20T10:29:31.153Z,101667.36
2018-11-20T10:32:27.484Z,101654.59
2018-11-20T10:35:28.127Z,101641.65
2018-11-20T10:38:18.457Z,101647.63
2018-11-20T10:41:10.078Z,101640.90
2018-11-20T10:44:03.935Z,101654.86
2018-11-20T10:46:50.467Z,101652.11
2018-11-20T10:49:53.097Z,101656.89
2018-11-20T10:52:34.465Z,101644.05
2018-11-20T10:55:39.952Z,101641.77
2018-11-20T10:58:26.446Z,101634.80
2018-11-20T11:01:12.697Z,101633.91
2018-11-20T11:04:18.635Z,101638.70
2018-11-20T11:07:25.776Z,101640.20
2018-11-20T11:10:13.261Z,101626.16
2018-11-20T11:12:59.403Z,101633.98
2018-11-20T11:15:46.776Z,101640.88
2018-11-20T11:18:46.094Z,101622.59
2018-11-20T11:21:36.352Z,101615.89
2018-11-20T11:24:23.892Z,101613.70
2018-11-20T11:27:23.110Z,101609.62
2018-11-20T11:30:25.474Z,101611.43
2018-11-20T11:33:11.446Z,101604.25
2018-11-20T11:36:08.031Z,101600.64
2018-11-20T11:38:51.147Z,101595.83
2018-11-20T11:41:44.196Z,101598.02
2018-11-20T11:44:30.454Z,101598.31
2018-11-20T11:47:16.671Z,101601.16
2018-11-20T11:50:07.228Z,101598.35
2018-11-20T11:52:53.544Z,101586.78
2018-11-20T11:55:39.935Z,101594.98
2018-11-20T11:58:27.329Z,101579.84
2018-11-20T12:01:14.220Z,101581.69
2018-11-20T12:05:09.853Z,101581.98
2018-11-20T12:07:50.628Z,101577.23
2018-11-20T12:10:30.009Z,101583.06
2018-11-20T12:13:29.205Z,101570.77
2018-11-20T12:16:15.646Z,101574.95
2018-11-20T12:19:15.229Z,101571.12
2018-11-20T12:22:13.569Z,101571.45
2018-11-20T12:24:59.101Z,101568.14
2018-11-20T12:27:58.816Z,101572.34
2018-11-20T12:30:59.381Z,101588.81
2018-11-20T12:33:48.936Z,101570.27
2018-11-20T12:36:41.224Z,101569.03
2018-11-20T12:39:30.972Z,101558.56
2018-11-20T12:42:26.295Z,101546.41
2018-11-20T12:45:25.025Z,101546.64
2018-11-20T12:48:17.475Z,101540.95
2018-11-20T12:50:59.613Z,101531.61
2018-11-20T12:53:44.876Z,101536.46
2018-11-20T12:56:43.790Z,101543.49
2018-11-20T12:59:32.214Z,101532.84
2018-11-20T13:02:17.544Z,101522.57
2018-11-20T13:05:22.821Z,101523.94
2018-11-20T13:08:08.243Z,101526.90
2018-11-20T13:11:00.690Z,101504.30
2018-11-20T13:13:59.229Z,101505.55
2018-11-20T13:16:44.735Z,101506.38
2018-11-20T13:19:31.259Z,101496.25
2018-11-20T13:22:18.882Z,101500.90
2018-11-20T13:25:04.276Z,101487.89
2018-11-20T13:27:56.696Z,101499.32
2018-11-20T13:30:42.465Z,101504.86
2018-11-20T13:33:27.819Z,101486.38
2018-11-20T13:36:32.928Z,101493.50
2018-11-20T13:39:18.478Z,101497.00
2018-11-20T13:42:08.173Z,101474.83
2018-11-20T13:44:59.903Z,101484.67
2018-11-20T13:47:52.760Z,101489.13
2018-11-20T13:50:37.276Z,101480.03
2018-11-20T13:53:18.798Z,101487.09
2018-11-20T13:56:14.564Z,101486.88
2018-11-20T13:59:13.419Z,101476.31
2018-11-20T14:02:03.249Z,101479.87
2018-11-20T14:04:49.090Z,101466.86
2018-11-20T14:07:35.723Z,101457.11
2018-11-20T14:10:14.946Z,101466.73
2018-11-20T14:13:10.122Z,101468.20
2018-11-20T14:15:59.604Z,101452.84
2018-11-20T14:18:44.931Z,101467.58
2018-11-20T14:21:31.582Z,101453.73
2018-11-20T14:24:21.209Z,101456.21
2018-11-20T14:27:02.245Z,101444.44
2018-11-20T14:29:57.719Z,101457.92
2018-11-20T14:32:47.310Z,101449.02
2018-11-20T14:35:49.196Z,101441.34
2018-11-20T14:38:34.619Z,101434.77
2018-11-20T14:41:11.533Z,101441.84
2018-11-20T14:44:10.139Z,101428.62
2018-11-20T14:47:12.011Z,101437.04
2018-11-20T14:50:10.836Z,101454.06
2018-11-20T14:52:50.083Z,101457.37
2018-11-20T14:55:44.432Z,101450.23
2018-11-20T14:58:18.601Z,101451.55
2018-11-20T15:01:04.878Z,101457.99
2018-11-20T15:03:46.071Z,101456.20
2018-11-20T15:06:47.904Z,101450.17
2018-11-20T15:09:37.240Z,101450.61
2018-11-20T15:12:36.285Z,101454.21
2018-11-20T15:15:23.653Z,101460.46
2018-11-20T15:18:09.072Z,101452.78
2018-11-20T15:21:04.637Z,101440.27
2018-11-20T15:24:00.384Z,101435.88
2018-11-20T15:26:45.769Z,101453.45
2018-11-20T15:29:32.459Z,101437.67
2018-11-20T15:32:21.933Z,101427.87
2018-11-20T15:35:03.577Z,101445.55
2018-11-20T15:37:59.532Z,101439.64
2018-11-20T15:40:48.995Z,101437.31
2018-11-20T15:43:44.597Z,101431.17
2018-11-20T15:46:33.982Z,101433.47
2018-11-20T15:49:19.376Z,101430.47
2018-11-20T15:52:04.570Z,101426.70
2018-11-20T15:54:50.148Z,101427.11
2018-11-20T15:57:49.229Z,101420.16
2018-11-20T16:00:38.892Z,101414.20
2018-11-20T16:03:31.188Z,101420.28
2018-11-20T16:06:18.936Z,101425.59
2018-11-20T16:09:04.407Z,101418.77
2018-11-20T16:11:51.075Z,101421.98
2018-11-20T16:14:36.717Z,101417.75
2018-11-20T16:17:38.476Z,101426.37
2018-11-20T16:20:19.826Z,101419.05
2018-11-20T16:22:54.234Z,101410.91
2018-11-20T16:25:46.977Z,101423.77
2018-11-20T16:28:45.720Z,101428.57
2018-11-20T16:31:50.532Z,101425.88
2018-11-20T16:34:27.734Z,101427.46
2018-11-20T16:37:14.070Z,101425.34
2018-11-20T16:40:02.267Z,101415.34
2018-11-20T16:42:50.231Z,101422.14
2018-11-20T16:45:39.645Z,101420.41
2018-11-20T16:48:26.318Z,101422.05
2018-11-20T16:51:16.033Z,101424.03
2018-11-20T16:54:05.535Z,101412.89
2018-11-20T16:56:48.056Z,101422.06
2018-11-20T16:59:40.656Z,101435.34
2018-11-20T17:02:36.094Z,101426.48
2018-11-20T17:05:21.168Z,101425.47
2018-11-20T17:08:01.209Z,101425.47
2018-11-20T17:10:56.952Z,101418.09
2018-11-20T17:13:52.466Z,101415.56
2018-11-20T17:16:57.442Z,101401.55
2018-11-20T17:19:42.587Z,101412.97
2018-11-20T17:22:47.503Z,101414.53
2018-11-20T17:25:52.333Z,101424.25
2018-11-20T17:28:41.603Z,101417.95
2018-11-20T17:31:26.855Z,101422.96
2018-11-20T17:34:12.373Z,101428.76
2018-11-20T17:36:57.555Z,101432.47
2018-11-20T17:39:42.914Z,101433.83
2018-11-20T17:42:32.371Z,101424.86
2018-11-20T17:45:19.031Z,101433.95
2018-11-20T17:48:08.427Z,101441.94
2018-11-20T17:50:53.855Z,101422.88
2018-11-20T17:53:55.668Z,101424.43
2018-11-20T17:56:59.934Z,101438.32
2018-11-20T17:59:36.480Z,101429.31
2018-11-20T18:02:21.809Z,101444.25
2018-11-20T18:05:05.409Z,101442.73
2018-11-20T18:07:47.558Z,101451.89
2018-11-20T18:10:40.057Z,101430.41
2018-11-20T18:13:29.696Z,101443.46
2018-11-20T18:16:15.226Z,101430.63
2018-11-20T18:19:00.665Z,101439.72
2018-11-20T18:21:46.257Z,101444.67
2018-11-20T18:24:35.621Z,101441.75
2018-11-20T18:27:22.308Z,101431.98
2018-11-20T18:30:05.699Z,101432.26
2018-11-20T18:33:10.469Z,101442.47
2018-11-20T18:35:50.141Z,101445.34
2018-11-20T18:38:35.289Z,101436.30
2018-11-20T18:41:31.055Z,101444.19
2018-11-20T18:44:16.505Z,101440.28
2018-11-20T18:47:10.109Z,101438.50
2018-11-20T18:49:55.191Z,101446.91
2018-11-20T18:52:40.755Z,101434.25
2018-11-20T18:55:26.085Z,101436.34
2018-11-20T18:58:11.274Z,101438.81
2018-11-20T19:01:00.522Z,101430.97
2018-11-20T19:03:47.256Z,101432.67
2018-11-20T19:06:25.661Z,101441.48
2018-11-20T19:09:12.524Z,101435.53
2018-11-20T19:12:03.661Z,101435.80
2018-11-20T19:14:43.503Z,101434.31
2018-11-20T19:17:39.146Z,101437.71
2018-11-20T19:20:35.150Z,101448.05
2018-11-20T19:23:36.705Z,101446.75
2018-11-20T19:26:22.170Z,101441.94
2018-11-20T19:29:04.839Z,101453.08
2018-11-20T19:31:53.192Z,101447.39
2018-11-20T19:34:43.741Z,101451.59
2018-11-20T19:37:27.098Z,101457.59
2018-11-20T19:40:19.559Z,101448.36
2018-11-20T19:43:12.404Z,101442.80
2018-11-20T19:45:58.241Z,101450.92
2018-11-20T19:48:57.321Z,101441.47
2018-11-20T19:51:42.714Z,101443.63
2018-11-20T19:54:44.730Z,101434.13
2018-11-20T19:57:31.272Z,101436.19
2018-11-20T20:00:17.920Z,101433.55
2018-11-20T20:03:04.582Z,101448.19
2018-11-20T20:05:50.159Z,101452.44
2018-11-20T20:08:27.995Z,101448.14
2018-11-20T20:11:29.239Z,101433.48
2018-11-20T20:14:15.959Z,101436.03
2018-11-20T20:17:01.545Z,101438.19
2018-11-20T20:19:46.567Z,101455.49
2018-11-20T20:22:33.292Z,101438.76
2018-11-20T20:25:28.471Z,101429.06
2018-11-20T20:28:26.223Z,101426.41
2018-11-20T20:31:11.689Z,101429.46
2018-11-20T20:34:13.547Z,101435.72
2018-11-20T20:36:59.092Z,101430.13
2018-11-20T20:40:00.913Z,101442.70
2018-11-20T20:43:05.021Z,101433.35
2018-11-20T20:45:55.735Z,101450.98
2018-11-20T20:48:45.456Z,101443.59
2018-11-20T20:51:30.763Z,101438.45
2018-11-20T20:54:16.080Z,101466.78
2018-11-20T20:56:59.800Z,101452.01
2018-11-20T20:59:44.995Z,101459.89
2018-11-20T21:02:44.392Z,101482.89
2018-11-20T21:05:29.894Z,101453.41
2018-11-20T21:08:10.816Z,101430.72
2018-11-20T21:10:56.164Z,101459.80
2018-11-20T21:13:54.958Z,101445.30
2018-11-20T21:16:41.816Z,101446.81
2018-11-20T21:19:37.733Z,101441.98
2018-11-20T21:22:23.163Z,101454.16
2018-11-20T21:25:08.990Z,101474.92
2018-11-20T21:27:50.044Z,101445.79
2018-11-20T21:30:43.213Z,101460.16
2018-11-20T21:33:24.555Z,101464.95
2018-11-20T21:36:11.261Z,101457.11
2018-11-20T21:39:03.673Z,101461.50
2018-11-20T21:41:52.917Z,101460.20
2018-11-20T21:44:37.905Z,101466.52
2018-11-20T21:47:24.797Z,101467.50
2018-11-20T21:50:29.793Z,101458.19
2018-11-20T21:53:18.163Z,101457.56
2018-11-20T21:56:13.872Z,101472.42
2018-11-20T21:59:00.511Z,101468.03
2018-11-20T22:01:59.160Z,101469.20
2018-11-20T22:05:04.538Z,101474.48
2018-11-20T22:07:53.977Z,101487.06
2018-11-20T22:10:43.724Z,101485.09
2018-11-20T22:13:24.540Z,101483.53
2018-11-20T22:16:23.184Z,101489.79
2018-11-20T22:19:21.432Z,101497.45
2018-11-20T22:22:06.747Z,101509.09
2018-11-20T22:24:59.463Z,101504.66
2018-11-20T22:27:54.545Z,101506.66
2018-11-20T22:30:36.472Z,101502.10
2018-11-20T22:33:23.071Z,101510.25
2018-11-20T22:36:02.831Z,101503.36
2018-11-20T22:38:39.561Z,101511.47
2018-11-20T22:41:41.107Z,101517.02
2018-11-20T22:44:21.293Z,101509.63
2018-11-20T22:47:05.660Z,101500.17
2018-11-20T22:49:51.226Z,101507.34
2018-11-20T22:52:33.868Z,101511.81
2018-11-20T22:55:38.693Z,101515.84
2018-11-20T22:58:14.277Z,101526.77
2018-11-20T23:00:59.595Z,101522.74
2018-11-20T23:03:52.259Z,101526.14
2018-11-20T23:06:46.888Z,101528.20
2018-11-20T23:09:14.054Z,101521.80
2018-11-20T23:11:41.248Z,101532.36
2018-11-20T23:14:08.413Z,101534.42
2018-11-20T23:16:35.562Z,101535.98
2018-11-20T23:19:02.658Z,101532.09
2018-11-20T23:21:29.976Z,101525.11
2018-11-20T23:23:57.189Z,101534.42
2018-11-20T23:26:24.367Z,101525.70
2018-11-20T23:28:51.487Z,101548.40
2018-11-20T23:31:18.638Z,101532.02
2018-11-20T23:33:45.932Z,101532.23
2018-11-20T23:36:13.084Z,101535.64
2018-11-20T23:38:40.225Z,101537.52
2018-11-20T23:41:07.382Z,101533.72
2018-11-20T23:43:34.517Z,101526.45
2018-11-20T23:46:01.636Z,101529.05
2018-11-20T23:48:28.817Z,101535.14
2018-11-20T23:50:55.963Z,101526.77
2018-11-20T23:53:23.134Z,101533.34
2018-11-20T23:55:50.251Z,101525.47
2018-11-20T23:58:17.422Z,101523.33
